createdAt,value
2016-10-05T00:03:09.894Z,1037.84
2016-10-05T00:08:09.840Z,1037.76
2016-10-05T00:13:09.790Z,1037.8
2016-10-05T00:18:09.736Z,1037.84
2016-10-05T00:23:09.686Z,1037.93
2016-10-05T00:28:09.634Z,1037.93
2016-10-05T00:33:09.582Z,1037.9
2016-10-05T00:38:09.530Z,1037.87
2016-10-05T00:43:09.478Z,1037.88
2016-10-05T00:48:09.424Z,1037.93
2016-10-05T00:53:09.373Z,1037.91
2016-10-05T00:58:09.320Z,1037.98
2016-10-05T01:03:09.268Z,1037.92
2016-10-05T01:08:09.216Z,1037.89
2016-10-05T01:13:09.166Z,1037.97
2016-10-05T01:18:09.112Z,1037.93
2016-10-05T01:23:09.060Z,1037.93
2016-10-05T01:28:09.008Z,1037.92
2016-10-05T01:33:08.953Z,1037.88
2016-10-05T01:38:08.902Z,1037.91
2016-10-05T01:43:08.848Z,1037.84
2016-10-05T01:48:08.796Z,1037.86
2016-10-05T01:53:08.743Z,1037.84
2016-10-05T01:58:08.688Z,1037.9
2016-10-05T02:03:08.635Z,1037.89
2016-10-05T02:08:08.587Z,1037.91
2016-10-05T02:13:08.529Z,1037.89
2016-10-05T02:18:08.477Z,1037.8
2016-10-05T02:23:08.420Z,1037.77
2016-10-05T02:28:08.369Z,1037.74
2016-10-05T02:33:08.314Z,1037.64
2016-10-05T02:38:08.259Z,1037.59
2016-10-05T02:43:08.204Z,1037.62
2016-10-05T02:48:08.152Z,1037.6
2016-10-05T02:53:08.097Z,1037.62
2016-10-05T02:58:08.043Z,1037.59
2016-10-05T03:03:07.990Z,1037.56
2016-10-05T03:08:07.936Z,1037.57
2016-10-05T03:13:07.881Z,1037.65
2016-10-05T03:18:07.829Z,1037.71
2016-10-05T03:23:07.774Z,1037.65
2016-10-05T03:28:07.719Z,1037.63
2016-10-05T03:33:07.674Z,1037.6
2016-10-05T03:38:07.619Z,1037.57
2016-10-05T03:43:07.558Z,1037.59
2016-10-05T03:48:07.502Z,1037.61
2016-10-05T03:53:07.448Z,1037.54
2016-10-05T03:58:07.399Z,1037.56
2016-10-05T04:03:07.338Z,1037.57
2016-10-05T04:08:07.283Z,1037.59
2016-10-05T04:13:07.229Z,1037.64
2016-10-05T04:18:07.175Z,1037.66
2016-10-05T04:23:07.122Z,1037.68
2016-10-05T04:28:07.063Z,1037.76
2016-10-05T04:33:07.011Z,1037.8
2016-10-05T04:38:06.953Z,1037.88
2016-10-05T04:43:06.896Z,1037.85
2016-10-05T04:48:06.839Z,1037.89
2016-10-05T04:53:06.784Z,1037.85
2016-10-05T04:58:06.732Z,1037.95
2016-10-05T05:03:06.671Z,1037.97
2016-10-05T05:08:06.619Z,1037.86
2016-10-05T05:13:06.562Z,1037.89
2016-10-05T05:18:06.507Z,1037.93
2016-10-05T05:23:06.450Z,1037.96
2016-10-05T05:28:06.397Z,1038.04
2016-10-05T05:33:06.347Z,1038.05
2016-10-05T05:38:06.283Z,1038.07
2016-10-05T05:43:06.227Z,1038.1
2016-10-05T05:48:06.171Z,1038.05
2016-10-05T05:53:06.115Z,1038.1
2016-10-05T05:58:06.057Z,1038.08
2016-10-05T06:03:06.001Z,1038.19
2016-10-05T06:08:05.945Z,1038.25
2016-10-05T06:13:05.889Z,1038.3
2016-10-05T06:18:05.831Z,1038.29
2016-10-05T06:23:05.777Z,1038.3
2016-10-05T06:28:05.718Z,1038.28
2016-10-05T06:33:05.660Z,1038.31
2016-10-05T06:38:05.603Z,1038.35
2016-10-05T06:43:05.549Z,1038.4
2016-10-05T06:48:05.488Z,1038.45
2016-10-05T06:53:05.430Z,1038.4
2016-10-05T06:58:05.373Z,1038.44
2016-10-05T07:03:05.316Z,1038.44
2016-10-05T07:08:05.259Z,1038.46
2016-10-05T07:13:05.204Z,1038.49
2016-10-05T07:18:05.156Z,1038.48
2016-10-05T07:23:05.094Z,1038.54
2016-10-05T07:28:05.041Z,1038.51
2016-10-05T07:33:04.987Z,1038.52
2016-10-05T07:38:04.930Z,1038.52
2016-10-05T07:43:04.877Z,1038.6
2016-10-05T07:48:04.823Z,1038.55
2016-10-05T07:53:04.767Z,1038.57
2016-10-05T07:58:04.710Z,1038.58
2016-10-05T08:03:04.654Z,1038.53
2016-10-05T08:08:04.600Z,1038.51
2016-10-05T08:13:04.546Z,1038.5
2016-10-05T08:18:04.488Z,1038.56
2016-10-05T08:23:04.432Z,1038.55
2016-10-05T08:28:04.379Z,1038.54
2016-10-05T08:33:04.323Z,1038.58
2016-10-05T08:38:04.269Z,1038.52
2016-10-05T08:43:04.213Z,1038.56
2016-10-05T08:48:04.159Z,1038.57
2016-10-05T08:53:04.107Z,1038.54
2016-10-05T08:58:04.055Z,1038.52
2016-10-05T09:03:04.004Z,1038.52
2016-10-05T09:08:03.954Z,1038.49
2016-10-05T09:13:03.903Z,1038.43
2016-10-05T09:18:03.847Z,1038.42
2016-10-05T09:23:03.795Z,1038.37
2016-10-05T09:28:03.745Z,1038.33
2016-10-05T09:33:03.695Z,1038.36
2016-10-05T09:38:03.643Z,1038.25
2016-10-05T09:43:03.592Z,1038.23
2016-10-05T09:48:03.545Z,1038.23
2016-10-05T09:53:03.496Z,1038.2
2016-10-05T09:58:03.443Z,1038.17
2016-10-05T10:03:03.392Z,1038.14
2016-10-05T10:08:03.348Z,1038.08
2016-10-05T10:13:03.290Z,1037.98
2016-10-05T10:18:03.240Z,1038.02
2016-10-05T10:23:03.194Z,1037.91
2016-10-05T10:28:03.143Z,1037.98
2016-10-05T10:33:03.091Z,1037.89
2016-10-05T10:38:03.044Z,1037.89
2016-10-05T10:43:02.992Z,1037.92
2016-10-05T10:48:02.948Z,1037.84
2016-10-05T10:53:02.894Z,1037.73
2016-10-05T10:58:02.844Z,1037.6
2016-10-05T11:03:02.795Z,1037.48
2016-10-05T11:08:02.750Z,1037.41
2016-10-05T11:13:02.695Z,1037.28
2016-10-05T11:18:02.650Z,1037.24
2016-10-05T11:23:02.601Z,1037.21
2016-10-05T11:28:02.551Z,1037.1
2016-10-05T11:33:02.500Z,1037.07
2016-10-05T11:38:02.452Z,1036.96
2016-10-05T11:43:02.403Z,1036.83
2016-10-05T11:48:02.353Z,1036.74
2016-10-05T11:53:02.305Z,1036.65
2016-10-05T11:58:02.258Z,1036.54
2016-10-05T12:03:02.210Z,1036.45
2016-10-05T12:08:02.158Z,1036.41
2016-10-05T12:13:02.108Z,1036.47
2016-10-05T12:18:02.059Z,1036.38
2016-10-05T12:23:02.008Z,1036.34
2016-10-05T12:28:01.960Z,1036.28
2016-10-05T12:33:01.911Z,1036.14
2016-10-05T12:38:01.861Z,1036.17
2016-10-05T12:43:01.811Z,1036.13
2016-10-05T12:48:01.762Z,1036.13
2016-10-05T12:53:01.716Z,1036.14
2016-10-05T12:58:01.671Z,1036.03
2016-10-05T13:03:01.623Z,1036.09
2016-10-05T13:08:01.575Z,1036.04
2016-10-05T13:13:01.529Z,1035.94
2016-10-05T13:18:01.480Z,1035.84
2016-10-05T13:23:01.448Z,1035.69
2016-10-05T13:28:01.392Z,1035.8
2016-10-05T13:33:01.341Z,1035.78
2016-10-05T13:38:01.293Z,1035.82
2016-10-05T13:43:01.245Z,1035.72
2016-10-05T13:48:01.197Z,1035.79
2016-10-05T13:53:01.147Z,1035.8
2016-10-05T13:58:01.101Z,1035.74
2016-10-05T14:03:01.051Z,1035.53
2016-10-05T14:08:01.004Z,1035.46
2016-10-05T14:13:00.960Z,1035.41
2016-10-05T14:18:00.908Z,1035.38
2016-10-05T14:23:00.859Z,1035.18
2016-10-05T14:28:00.819Z,1035.16
2016-10-05T14:33:00.767Z,1035.18
2016-10-05T14:38:00.720Z,1035.13
2016-10-05T14:43:00.673Z,1034.99
2016-10-05T14:48:00.629Z,1034.94
2016-10-05T14:53:00.577Z,1034.87
2016-10-05T14:58:00.528Z,1034.91
2016-10-05T15:03:00.482Z,1034.88
2016-10-05T15:08:00.436Z,1034.9
2016-10-05T15:13:00.390Z,1034.91
2016-10-05T15:18:00.344Z,1034.84
2016-10-05T15:23:00.298Z,1034.84
2016-10-05T15:28:00.260Z,1034.78
2016-10-05T15:33:00.212Z,1034.75
2016-10-05T15:38:00.171Z,1034.8
2016-10-05T15:43:00.120Z,1034.67
2016-10-05T15:48:00.074Z,1034.59
2016-10-05T15:53:00.028Z,1034.6
2016-10-05T15:57:59.984Z,1034.61
2016-10-05T16:02:59.938Z,1034.56
2016-10-05T16:07:59.891Z,1034.5
2016-10-05T16:12:59.846Z,1034.51
2016-10-05T16:17:59.800Z,1034.46
2016-10-05T16:22:59.756Z,1034.36
2016-10-05T16:27:59.709Z,1034.36
2016-10-05T16:32:59.661Z,1034.33
2016-10-05T16:37:59.617Z,1034.25
2016-10-05T16:42:59.566Z,1034.24
2016-10-05T16:47:59.520Z,1034.28
2016-10-05T16:52:59.473Z,1034.23
2016-10-05T16:57:59.426Z,1034.29
2016-10-05T17:02:59.382Z,1034.28
2016-10-05T17:07:59.340Z,1034.25
2016-10-05T17:12:59.289Z,1034.24
2016-10-05T17:17:59.244Z,1034.19
2016-10-05T17:22:59.198Z,1034.12
2016-10-05T17:27:59.153Z,1034.14
2016-10-05T17:32:59.107Z,1034.18
2016-10-05T17:37:59.064Z,1034.2
2016-10-05T17:42:59.017Z,1034.12
2016-10-05T17:47:58.968Z,1034.17
2016-10-05T17:52:58.925Z,1034.21
2016-10-05T17:57:58.880Z,1034.18
2016-10-05T18:02:58.833Z,1034.14
2016-10-05T18:07:58.784Z,1034.15
2016-10-05T18:12:58.738Z,1034.1
2016-10-05T18:17:58.691Z,1034.09
2016-10-05T18:22:58.642Z,1034
2016-10-05T18:27:58.594Z,1034.03
2016-10-05T18:32:58.546Z,1034.07
2016-10-05T18:37:58.500Z,1034.02
2016-10-05T18:42:58.452Z,1034
2016-10-05T18:47:58.405Z,1033.91
2016-10-05T18:52:58.377Z,1033.88
2016-10-05T18:57:58.312Z,1033.85
2016-10-05T19:02:58.266Z,1033.85
2016-10-05T19:07:58.216Z,1033.9
2016-10-05T19:12:58.171Z,1033.94
2016-10-05T19:17:58.122Z,1033.87
2016-10-05T19:22:58.075Z,1033.87
2016-10-05T19:27:58.027Z,1033.87
2016-10-05T19:32:57.981Z,1033.83
2016-10-05T19:37:57.935Z,1033.82
2016-10-05T19:42:57.890Z,1033.83
2016-10-05T19:47:57.841Z,1033.82
2016-10-05T19:52:57.795Z,1033.9
2016-10-05T19:57:57.750Z,1033.92
2016-10-05T20:02:57.701Z,1033.86
2016-10-05T20:07:57.656Z,1033.86
2016-10-05T20:12:57.606Z,1033.85
2016-10-05T20:17:57.564Z,1033.83
2016-10-05T20:22:57.515Z,1033.8
2016-10-05T20:27:57.473Z,1033.86
2016-10-05T20:32:57.426Z,1033.96
2016-10-05T20:37:57.371Z,1033.92
2016-10-05T20:42:57.326Z,1033.98
2016-10-05T20:47:57.275Z,1033.99
2016-10-05T20:52:57.227Z,1033.88
2016-10-05T20:57:57.187Z,1033.71
2016-10-05T21:02:57.131Z,1033.71
2016-10-05T21:07:57.080Z,1033.76
2016-10-05T21:12:57.029Z,1033.66
2016-10-05T21:17:56.982Z,1033.68
2016-10-05T21:22:56.931Z,1033.68
2016-10-05T21:27:56.881Z,1033.62
2016-10-05T21:32:56.833Z,1033.6
2016-10-05T21:37:56.784Z,1033.61
2016-10-05T21:42:56.734Z,1033.55
2016-10-05T21:47:56.684Z,1033.44
2016-10-05T21:52:56.638Z,1033.32
2016-10-05T21:57:56.588Z,1033.2
2016-10-05T22:02:56.540Z,1033.17
2016-10-05T22:07:56.488Z,1033.25
2016-10-05T22:12:56.437Z,1033.26
2016-10-05T22:17:56.389Z,1033.29
2016-10-05T22:22:56.335Z,1033.1
2016-10-05T22:27:56.282Z,1032.99
2016-10-05T22:32:56.233Z,1032.94
2016-10-05T22:37:56.178Z,1032.84
2016-10-05T22:42:56.124Z,1032.84
2016-10-05T22:47:56.073Z,1032.95
2016-10-05T22:52:56.021Z,1032.97
2016-10-05T22:57:55.968Z,1033
2016-10-05T23:02:55.914Z,1033.03
2016-10-05T23:07:55.863Z,1033.04
2016-10-05T23:12:55.812Z,1032.96
2016-10-05T23:17:55.755Z,1032.92
2016-10-05T23:22:55.701Z,1032.89
2016-10-05T23:27:55.649Z,1032.88
2016-10-05T23:32:55.596Z,1032.87
2016-10-05T23:37:55.540Z,1032.88
2016-10-05T23:42:55.486Z,1032.86
2016-10-05T23:47:55.436Z,1032.83
2016-10-05T23:52:55.381Z,1032.85
2016-10-05T23:57:55.323Z,1032.8
